createdAt,value
2022-09-24T00:00:43.861Z,96.23
2022-09-24T00:01:43.812Z,95.83
2022-09-24T00:02:43.831Z,95.73
2022-09-24T00:03:43.706Z,95.62
2022-09-24T00:04:43.680Z,95.42
2022-09-24T00:05:43.694Z,95.32
2022-09-24T00:06:43.690Z,95.21
2022-09-24T00:07:43.699Z,95.12
2022-09-24T00:08:43.638Z,95.01
2022-09-24T00:09:43.618Z,95.12
2022-09-24T00:10:43.639Z,95.26
2022-09-24T00:11:43.669Z,95.57
2022-09-24T00:12:43.590Z,95.77
2022-09-24T00:13:43.555Z,95.97
2022-09-24T00:14:43.548Z,95.97
2022-09-24T00:15:43.594Z,96.08
2022-09-24T00:16:43.598Z,96.18
2022-09-24T00:17:43.539Z,96.28
2022-09-24T00:18:43.498Z,96.38
2022-09-24T00:19:43.487Z,96.59
2022-09-24T00:20:43.491Z,96.79
2022-09-24T00:21:43.465Z,96.89
2022-09-24T00:22:43.479Z,96.89
2022-09-24T00:23:43.443Z,96.89
2022-09-24T00:24:43.420Z,97.00
2022-09-24T00:25:43.403Z,97.09
2022-09-24T00:26:43.382Z,97.20
2022-09-24T00:27:43.451Z,97.20
2022-09-24T00:28:43.357Z,97.30
2022-09-24T00:29:43.354Z,97.25
2022-09-24T00:30:43.325Z,97.16
2022-09-24T00:31:43.414Z,97.05
2022-09-24T00:32:43.333Z,96.95
2022-09-24T00:33:43.304Z,96.84
2022-09-24T00:34:43.282Z,96.64
2022-09-24T00:35:43.261Z,96.44
2022-09-24T00:36:43.255Z,95.83
2022-09-24T00:37:43.264Z,95.32
2022-09-24T00:38:43.234Z,95.21
2022-09-24T00:39:43.235Z,95.21
2022-09-24T00:40:43.301Z,95.47
2022-09-24T00:41:43.179Z,95.67
2022-09-24T00:42:43.189Z,95.77
2022-09-24T00:43:43.162Z,95.83
2022-09-24T00:44:43.172Z,95.73
2022-09-24T00:45:43.140Z,95.67
2022-09-24T00:46:43.233Z,95.62
2022-09-24T00:47:43.101Z,95.52
2022-09-24T00:48:43.212Z,95.62
2022-09-24T00:49:43.092Z,95.62
2022-09-24T00:50:43.076Z,95.62
2022-09-24T00:51:43.094Z,95.52
2022-09-24T00:52:43.037Z,95.42
2022-09-24T00:53:43.023Z,95.12
2022-09-24T00:54:43.010Z,94.91
2022-09-24T00:55:42.998Z,94.71
2022-09-24T00:56:42.986Z,94.50
2022-09-24T00:57:42.977Z,94.50
2022-09-24T00:58:42.959Z,94.50
2022-09-24T00:59:42.936Z,94.71
2022-09-24T01:00:42.953Z,94.71
2022-09-24T01:01:42.974Z,94.81
2022-09-24T01:02:42.924Z,94.91
2022-09-24T01:03:42.901Z,94.91
2022-09-24T01:04:42.919Z,94.81
2022-09-24T01:05:42.848Z,94.50
2022-09-24T01:06:42.880Z,94.30
2022-09-24T01:07:42.841Z,94.09
2022-09-24T01:08:42.834Z,94.09
2022-09-24T01:09:42.842Z,94.09
2022-09-24T01:10:42.792Z,94.09
2022-09-24T01:11:42.776Z,94.09
2022-09-24T01:12:42.759Z,94.24
2022-09-24T01:13:43.790Z,94.24
2022-09-24T01:14:42.743Z,94.24
2022-09-24T01:15:42.887Z,94.45
2022-09-24T01:16:42.789Z,94.55
2022-09-24T01:17:42.694Z,94.70
2022-09-24T01:18:42.715Z,94.90
2022-09-24T01:19:42.652Z,95.10
2022-09-24T01:20:42.695Z,95.51
2022-09-24T01:21:42.640Z,95.61
2022-09-24T01:22:42.687Z,95.61
2022-09-24T01:23:47.814Z,95.61
2022-09-24T01:24:42.604Z,95.61
2022-09-24T01:25:42.611Z,95.61
2022-09-24T01:26:42.601Z,95.61
2022-09-24T01:27:42.574Z,95.61
2022-09-24T01:28:42.544Z,95.36
2022-09-24T01:29:42.553Z,95.16
2022-09-24T01:30:42.633Z,95.00
2022-09-24T01:31:42.586Z,95.00
2022-09-24T01:32:42.486Z,95.00
2022-09-24T01:33:42.482Z,95.20
2022-09-24T01:34:42.466Z,95.31
2022-09-24T01:35:42.449Z,95.41
2022-09-24T01:36:42.470Z,95.51
2022-09-24T01:37:42.425Z,95.61
2022-09-24T01:38:42.458Z,95.41
2022-09-24T01:39:42.417Z,95.31
2022-09-24T01:40:42.528Z,95.31
2022-09-24T01:41:42.380Z,95.65
2022-09-24T01:42:42.379Z,95.96
2022-09-24T01:43:42.359Z,96.17
2022-09-24T01:44:42.326Z,96.37
2022-09-24T01:45:42.328Z,96.47
2022-09-24T01:46:42.501Z,96.58
2022-09-24T01:47:42.307Z,96.68
2022-09-24T01:48:42.301Z,96.78
2022-09-24T01:49:42.262Z,96.98
2022-09-24T01:50:42.266Z,97.08
2022-09-24T01:51:42.267Z,97.08
2022-09-24T01:52:42.255Z,97.19
2022-09-24T01:53:42.218Z,97.19
2022-09-24T01:54:42.251Z,97.29
2022-09-24T01:55:42.205Z,97.39
2022-09-24T01:56:42.191Z,97.39
2022-09-24T01:57:42.155Z,97.39
2022-09-24T01:58:42.139Z,97.39
2022-09-24T01:59:42.131Z,97.29
2022-09-24T02:00:42.201Z,97.19
2022-09-24T02:01:42.149Z,97.19
2022-09-24T02:02:42.095Z,97.08
2022-09-24T02:03:42.092Z,97.08
2022-09-24T02:04:42.626Z,97.19
2022-09-24T02:05:42.076Z,97.14
2022-09-24T02:06:42.044Z,97.14
2022-09-24T02:07:42.034Z,97.04
2022-09-24T02:08:42.009Z,97.04
2022-09-24T02:09:42.003Z,97.04
2022-09-24T02:10:42.015Z,97.14
2022-09-24T02:11:41.963Z,97.24
2022-09-24T02:12:42.031Z,97.34
2022-09-24T02:13:41.940Z,97.34
2022-09-24T02:14:41.930Z,97.34
2022-09-24T02:15:41.962Z,97.24
2022-09-24T02:16:41.937Z,97.24
2022-09-24T02:17:41.902Z,97.29
2022-09-24T02:18:41.892Z,97.29
2022-09-24T02:19:41.849Z,97.39
2022-09-24T02:20:41.851Z,97.49
2022-09-24T02:21:41.833Z,97.49
2022-09-24T02:22:41.815Z,97.60
2022-09-24T02:23:41.818Z,97.60
2022-09-24T02:24:41.796Z,97.70
2022-09-24T02:25:41.800Z,97.80
2022-09-24T02:26:41.768Z,97.80
2022-09-24T02:27:41.759Z,97.49
2022-09-24T02:28:41.835Z,96.98
2022-09-24T02:29:41.719Z,96.58
2022-09-24T02:30:41.735Z,96.37
2022-09-24T02:31:41.806Z,96.27
2022-09-24T02:32:41.676Z,96.27
2022-09-24T02:33:41.709Z,96.12
2022-09-24T02:34:41.668Z,96.02
2022-09-24T02:35:41.676Z,96.02
2022-09-24T02:36:41.622Z,95.81
2022-09-24T02:37:41.617Z,95.81
2022-09-24T02:38:41.639Z,95.72
2022-09-24T02:39:41.622Z,95.72
2022-09-24T02:40:41.644Z,95.61
2022-09-24T02:41:41.561Z,95.51
2022-09-24T02:42:41.568Z,95.51
2022-09-24T02:43:41.550Z,95.61
2022-09-24T02:44:41.537Z,95.72
2022-09-24T02:45:41.596Z,95.81
2022-09-24T02:46:41.594Z,95.81
2022-09-24T02:47:41.490Z,95.72
2022-09-24T02:48:41.496Z,95.61
2022-09-24T02:49:41.451Z,95.51
2022-09-24T02:50:41.471Z,95.31
2022-09-24T02:51:41.416Z,95.20
2022-09-24T02:52:41.410Z,95.10
2022-09-24T02:53:41.410Z,95.25
2022-09-24T02:54:41.407Z,95.45
2022-09-24T02:55:41.414Z,95.76
2022-09-24T02:56:41.385Z,96.06
2022-09-24T02:57:41.339Z,96.06
2022-09-24T02:58:41.353Z,95.96
2022-09-24T02:59:41.358Z,95.96
2022-09-24T03:00:41.361Z,95.86
2022-09-24T03:01:41.477Z,95.76
2022-09-24T03:02:41.420Z,95.76
2022-09-24T03:03:41.275Z,95.80
2022-09-24T03:04:41.287Z,95.90
2022-09-24T03:05:41.225Z,96.01
2022-09-24T03:06:41.256Z,96.11
2022-09-24T03:07:41.217Z,96.21
2022-09-24T03:08:41.194Z,96.42
2022-09-24T03:09:41.195Z,96.51
2022-09-24T03:10:41.254Z,96.72
2022-09-24T03:11:41.154Z,96.92
2022-09-24T03:12:41.134Z,97.24
2022-09-24T03:13:41.122Z,97.33
2022-09-24T03:14:41.129Z,97.33
2022-09-24T03:15:41.122Z,97.24
2022-09-24T03:16:41.111Z,97.13
2022-09-24T03:17:41.094Z,97.03
2022-09-24T03:18:41.059Z,96.92
2022-09-24T03:19:41.074Z,96.92
2022-09-24T03:20:41.044Z,96.88
2022-09-24T03:21:41.034Z,96.88
2022-09-24T03:22:41.008Z,96.78
2022-09-24T03:23:41.001Z,96.68
2022-09-24T03:24:40.989Z,96.58
2022-09-24T03:25:40.991Z,96.27
2022-09-24T03:26:40.989Z,95.96
2022-09-24T03:27:40.949Z,95.86
2022-09-24T03:28:40.938Z,95.80
2022-09-24T03:29:40.924Z,95.90
2022-09-24T03:30:40.896Z,96.06
2022-09-24T03:31:41.088Z,96.17
2022-09-24T03:32:40.877Z,96.27
2022-09-24T03:33:40.859Z,96.27
2022-09-24T03:34:40.842Z,96.17
2022-09-24T03:35:40.850Z,95.86
2022-09-24T03:36:40.839Z,95.80
2022-09-24T03:37:40.831Z,95.80
2022-09-24T03:38:40.789Z,95.90
2022-09-24T03:39:40.770Z,96.11
2022-09-24T03:40:40.934Z,96.31
2022-09-24T03:41:40.778Z,96.51
2022-09-24T03:42:40.804Z,96.51
2022-09-24T03:43:40.731Z,96.51
2022-09-24T03:44:40.708Z,96.42
2022-09-24T03:45:40.695Z,96.31
2022-09-24T03:46:40.752Z,96.31
2022-09-24T03:47:40.698Z,96.42
2022-09-24T03:48:41.677Z,96.62
2022-09-24T03:49:40.643Z,96.62
2022-09-24T03:50:40.638Z,96.62
2022-09-24T03:51:40.615Z,96.72
2022-09-24T03:52:40.604Z,96.62
2022-09-24T03:53:40.603Z,96.77
2022-09-24T03:54:40.601Z,96.77
2022-09-24T03:55:40.573Z,96.97
2022-09-24T03:56:40.555Z,97.08
2022-09-24T03:57:40.536Z,97.28
2022-09-24T03:58:40.543Z,97.38
2022-09-24T03:59:40.509Z,97.38
2022-09-24T04:00:41.302Z,97.44
2022-09-24T04:01:40.506Z,97.44
2022-09-24T04:02:40.505Z,97.44
2022-09-24T04:03:40.516Z,97.33
2022-09-24T04:04:40.481Z,97.13
2022-09-24T04:05:40.452Z,96.83
2022-09-24T04:06:40.418Z,96.42
2022-09-24T04:07:40.406Z,96.01
2022-09-24T04:08:40.414Z,95.80
2022-09-24T04:09:40.378Z,95.70
2022-09-24T04:10:40.387Z,95.70
2022-09-24T04:11:40.357Z,95.80
2022-09-24T04:12:40.330Z,95.80
2022-09-24T04:13:40.322Z,95.60
2022-09-24T04:14:40.326Z,95.64
2022-09-24T04:15:40.395Z,95.44
2022-09-24T04:16:41.178Z,95.64
2022-09-24T04:17:40.262Z,95.75
2022-09-24T04:18:40.302Z,96.00
2022-09-24T04:19:40.233Z,96.30
2022-09-24T04:20:40.255Z,96.41
2022-09-24T04:21:40.219Z,96.61
2022-09-24T04:22:40.207Z,96.71
2022-09-24T04:23:40.179Z,96.81
2022-09-24T04:24:40.235Z,96.92
2022-09-24T04:25:40.179Z,97.02
2022-09-24T04:26:40.152Z,97.02
2022-09-24T04:27:40.139Z,97.02
2022-09-24T04:28:40.111Z,97.22
2022-09-24T04:29:40.104Z,97.42
2022-09-24T04:30:40.140Z,97.53
2022-09-24T04:31:40.171Z,97.63
2022-09-24T04:32:40.071Z,97.74
2022-09-24T04:33:40.085Z,97.83
2022-09-24T04:34:40.031Z,97.83
2022-09-24T04:35:40.047Z,97.74
2022-09-24T04:36:40.053Z,97.53
2022-09-24T04:37:40.014Z,97.33
2022-09-24T04:38:39.988Z,97.27
2022-09-24T04:39:39.975Z,97.37
2022-09-24T04:40:40.033Z,97.47
2022-09-24T04:41:39.978Z,97.67
2022-09-24T04:42:39.954Z,97.78
2022-09-24T04:43:39.939Z,97.88
2022-09-24T04:44:39.903Z,97.94
2022-09-24T04:45:39.920Z,97.94
2022-09-24T04:46:39.976Z,97.83
2022-09-24T04:47:39.856Z,97.83
2022-09-24T04:48:39.905Z,97.83
2022-09-24T04:49:39.865Z,97.74
2022-09-24T04:50:44.969Z,97.49
2022-09-24T04:51:39.806Z,97.38
2022-09-24T04:52:39.817Z,97.28
2022-09-24T04:53:39.861Z,96.97
2022-09-24T04:54:39.788Z,96.67
2022-09-24T04:55:39.763Z,96.36
2022-09-24T04:56:39.746Z,96.15
2022-09-24T04:57:39.750Z,96.15
2022-09-24T04:58:39.740Z,96.20
2022-09-24T04:59:39.710Z,96.10
2022-09-24T05:00:39.694Z,96.41
2022-09-24T05:01:39.776Z,96.71
2022-09-24T05:02:39.771Z,96.92
2022-09-24T05:03:39.652Z,97.27
2022-09-24T05:04:39.675Z,97.47
2022-09-24T05:05:39.652Z,97.57
2022-09-24T05:06:39.606Z,97.57
2022-09-24T05:07:39.585Z,97.67
2022-09-24T05:08:39.574Z,97.78
2022-09-24T05:09:39.565Z,97.78
2022-09-24T05:10:39.576Z,97.88
2022-09-24T05:11:39.542Z,97.88
2022-09-24T05:12:39.536Z,97.88
2022-09-24T05:13:39.525Z,98.03
2022-09-24T05:14:39.512Z,98.24
2022-09-24T05:15:43.028Z,98.39
2022-09-24T05:16:39.600Z,98.49
2022-09-24T05:17:39.470Z,98.60
2022-09-24T05:18:39.450Z,98.70
2022-09-24T05:19:39.434Z,98.80
2022-09-24T05:20:39.419Z,98.80
2022-09-24T05:21:39.422Z,98.70
2022-09-24T05:22:39.393Z,98.55
2022-09-24T05:23:39.380Z,98.45
2022-09-24T05:24:39.384Z,98.35
2022-09-24T05:25:39.349Z,98.24
2022-09-24T05:26:39.353Z,98.24
2022-09-24T05:27:39.331Z,98.24
2022-09-24T05:28:39.344Z,98.14
2022-09-24T05:29:39.302Z,97.89
2022-09-24T05:30:39.326Z,97.63
2022-09-24T05:31:39.315Z,97.33
2022-09-24T05:32:39.258Z,97.12
2022-09-24T05:33:39.270Z,97.02
2022-09-24T05:34:39.222Z,97.02
2022-09-24T05:35:39.221Z,97.02
2022-09-24T05:36:39.216Z,97.12
2022-09-24T05:37:39.208Z,97.12
2022-09-24T05:38:41.750Z,97.22
2022-09-24T05:39:39.186Z,97.37
2022-09-24T05:40:39.185Z,97.57
2022-09-24T05:41:39.133Z,97.78
2022-09-24T05:42:39.132Z,97.88
2022-09-24T05:43:39.127Z,98.08
2022-09-24T05:44:39.092Z,98.19
2022-09-24T05:45:39.094Z,98.19
2022-09-24T05:46:39.145Z,98.29
2022-09-24T05:47:39.091Z,98.39
2022-09-24T05:48:39.043Z,98.39
2022-09-24T05:49:39.041Z,98.60
2022-09-24T05:50:39.029Z,98.70
2022-09-24T05:51:39.006Z,98.80
2022-09-24T05:52:39.012Z,99.01
2022-09-24T05:53:38.995Z,99.01
2022-09-24T05:54:38.960Z,99.01
2022-09-24T05:55:38.954Z,99.11
2022-09-24T05:56:38.963Z,99.11
2022-09-24T05:57:38.948Z,99.01
2022-09-24T05:58:38.952Z,99.01
2022-09-24T05:59:38.893Z,98.86
2022-09-24T06:00:39.009Z,98.86
2022-09-24T06:01:38.971Z,98.86
2022-09-24T06:02:38.986Z,98.75
2022-09-24T06:03:38.852Z,98.75
2022-09-24T06:04:38.825Z,98.75
2022-09-24T06:05:38.818Z,98.75
2022-09-24T06:06:38.835Z,98.45
2022-09-24T06:07:38.818Z,98.45
2022-09-24T06:08:38.790Z,98.30
2022-09-24T06:09:38.801Z,98.20
2022-09-24T06:10:38.755Z,98.10
2022-09-24T06:11:40.732Z,97.89
2022-09-24T06:12:38.723Z,97.79
2022-09-24T06:13:38.720Z,97.69
2022-09-24T06:14:38.732Z,97.69
2022-09-24T06:15:38.688Z,97.64
2022-09-24T06:16:38.738Z,97.54
2022-09-24T06:17:38.676Z,97.24
2022-09-24T06:18:38.632Z,96.83
2022-09-24T06:19:38.652Z,96.42
2022-09-24T06:20:38.655Z,96.36
2022-09-24T06:21:38.602Z,96.21
2022-09-24T06:22:38.610Z,96.31
2022-09-24T06:23:38.565Z,96.31
2022-09-24T06:24:38.552Z,96.31
2022-09-24T06:25:38.554Z,96.31
2022-09-24T06:26:38.551Z,96.31
2022-09-24T06:27:38.535Z,96.21
2022-09-24T06:28:38.909Z,96.11
2022-09-24T06:29:38.493Z,96.21
2022-09-24T06:30:38.476Z,96.42
2022-09-24T06:31:38.532Z,96.62
2022-09-24T06:32:38.447Z,96.72
2022-09-24T06:33:38.448Z,96.92
2022-09-24T06:34:38.413Z,97.03
2022-09-24T06:35:38.415Z,97.13
2022-09-24T06:36:38.477Z,97.24
2022-09-24T06:37:38.391Z,97.44
2022-09-24T06:38:38.363Z,97.54
2022-09-24T06:39:39.000Z,97.44
2022-09-24T06:40:38.487Z,97.39
2022-09-24T06:41:38.334Z,97.39
2022-09-24T06:42:38.335Z,97.39
2022-09-24T06:43:38.316Z,97.39
2022-09-24T06:44:38.309Z,97.29
2022-09-24T06:45:38.278Z,97.29
2022-09-24T06:46:38.349Z,97.39
2022-09-24T06:47:38.273Z,97.29
2022-09-24T06:48:38.277Z,97.39
2022-09-24T06:49:38.268Z,97.60
2022-09-24T06:50:38.257Z,97.70
2022-09-24T06:51:38.201Z,97.90
2022-09-24T06:52:38.192Z,98.11
2022-09-24T06:53:38.244Z,98.31
2022-09-24T06:54:38.179Z,98.46
2022-09-24T06:55:38.135Z,98.61
2022-09-24T06:56:38.136Z,98.72
2022-09-24T06:57:38.121Z,98.82
2022-09-24T06:58:38.129Z,98.82
2022-09-24T06:59:38.091Z,98.93
2022-09-24T07:00:38.107Z,98.93
2022-09-24T07:01:38.292Z,98.82
2022-09-24T07:02:38.167Z,98.82
2022-09-24T07:03:38.054Z,98.93
2022-09-24T07:04:38.033Z,99.02
2022-09-24T07:05:43.222Z,99.13
2022-09-24T07:06:38.047Z,99.13
2022-09-24T07:07:37.980Z,99.23
2022-09-24T07:08:37.976Z,99.13
2022-09-24T07:09:37.947Z,99.23
2022-09-24T07:10:37.976Z,99.23
2022-09-24T07:11:37.983Z,99.33
2022-09-24T07:12:37.918Z,99.33
2022-09-24T07:13:37.903Z,99.33
2022-09-24T07:14:37.877Z,99.43
2022-09-24T07:15:37.988Z,99.43
2022-09-24T07:16:37.876Z,99.43
2022-09-24T07:17:37.857Z,99.54
2022-09-24T07:18:37.854Z,99.54
2022-09-24T07:19:37.823Z,99.64
2022-09-24T07:20:37.849Z,99.74
2022-09-24T07:21:37.858Z,99.74
2022-09-24T07:22:37.795Z,99.74
2022-09-24T07:23:37.795Z,99.69
2022-09-24T07:24:37.779Z,99.79
2022-09-24T07:25:37.762Z,99.79
2022-09-24T07:26:37.744Z,99.79
2022-09-24T07:27:37.714Z,99.79
2022-09-24T07:28:37.724Z,99.65
2022-09-24T07:29:37.699Z,99.44
2022-09-24T07:30:37.699Z,99.34
2022-09-24T07:31:37.740Z,99.24
2022-09-24T07:32:37.643Z,99.14
2022-09-24T07:33:37.698Z,99.04
2022-09-24T07:34:37.618Z,98.83
2022-09-24T07:35:37.608Z,98.73
2022-09-24T07:36:37.584Z,98.52
2022-09-24T07:37:37.573Z,98.22
2022-09-24T07:38:37.681Z,98.07
2022-09-24T07:39:37.547Z,97.97
2022-09-24T07:40:37.588Z,97.87
2022-09-24T07:41:42.033Z,97.87
2022-09-24T07:42:37.509Z,97.87
2022-09-24T07:43:37.492Z,97.56
2022-09-24T07:44:37.550Z,97.46
2022-09-24T07:45:37.478Z,97.36
2022-09-24T07:46:37.531Z,97.46
2022-09-24T07:47:37.460Z,97.46
2022-09-24T07:48:37.460Z,97.41
2022-09-24T07:49:37.432Z,97.41
2022-09-24T07:50:37.456Z,97.41
2022-09-24T07:51:37.599Z,97.41
2022-09-24T07:52:37.506Z,97.31
2022-09-24T07:53:37.370Z,97.31
2022-09-24T07:54:37.389Z,97.31
2022-09-24T07:55:37.359Z,97.52
2022-09-24T07:56:37.315Z,97.72
2022-09-24T07:57:37.329Z,97.72
2022-09-24T07:58:37.331Z,97.82
2022-09-24T07:59:37.296Z,97.72
2022-09-24T08:00:37.445Z,97.62
2022-09-24T08:01:37.596Z,97.72
2022-09-24T08:02:37.261Z,97.92
2022-09-24T08:03:37.282Z,97.92
2022-09-24T08:04:37.211Z,97.92
2022-09-24T08:05:37.235Z,97.98
2022-09-24T08:06:39.574Z,97.98
2022-09-24T08:07:37.171Z,97.98
2022-09-24T08:08:37.164Z,98.08
2022-09-24T08:09:37.300Z,98.08
2022-09-24T08:10:37.158Z,97.98
2022-09-24T08:11:37.164Z,97.98
2022-09-24T08:12:37.107Z,97.98
2022-09-24T08:13:37.095Z,97.98
2022-09-24T08:14:37.071Z,98.08
2022-09-24T08:15:37.121Z,97.98
2022-09-24T08:16:37.043Z,97.78
2022-09-24T08:17:37.086Z,97.57
2022-09-24T08:18:37.240Z,97.57
2022-09-24T08:19:37.003Z,97.57
2022-09-24T08:20:36.989Z,97.57
2022-09-24T08:21:36.978Z,97.16
2022-09-24T08:22:37.021Z,97.06
2022-09-24T08:23:36.993Z,97.16
2022-09-24T08:24:36.968Z,97.06
2022-09-24T08:25:36.976Z,96.66
2022-09-24T08:26:36.924Z,96.45
2022-09-24T08:27:37.306Z,96.45
2022-09-24T08:28:36.913Z,96.35
2022-09-24T08:29:36.879Z,96.30
2022-09-24T08:30:36.882Z,96.10
2022-09-24T08:31:36.961Z,95.90
2022-09-24T08:32:36.819Z,95.79
2022-09-24T08:33:36.874Z,95.79
2022-09-24T08:34:36.816Z,96.00
2022-09-24T08:35:36.785Z,95.79
2022-09-24T08:36:42.075Z,95.79
2022-09-24T08:37:36.786Z,95.59
2022-09-24T08:38:36.784Z,94.98
2022-09-24T08:39:36.766Z,95.04
2022-09-24T08:40:36.796Z,94.93
2022-09-24T08:41:36.720Z,94.84
2022-09-24T08:42:36.727Z,94.32
2022-09-24T08:43:36.681Z,94.43
2022-09-24T08:44:36.794Z,94.23
2022-09-24T08:45:37.780Z,94.32
2022-09-24T08:46:36.685Z,94.53
2022-09-24T08:47:36.668Z,94.43
2022-09-24T08:48:36.626Z,94.43
2022-09-24T08:49:36.620Z,94.38
2022-09-24T08:50:36.597Z,94.59
2022-09-24T08:51:36.616Z,94.69
2022-09-24T08:52:36.568Z,94.69
2022-09-24T08:53:36.608Z,94.69
2022-09-24T08:54:36.845Z,94.69
2022-09-24T08:55:36.536Z,94.59
2022-09-24T08:56:36.512Z,94.59
2022-09-24T08:57:36.489Z,94.38
2022-09-24T08:58:40.442Z,93.57
2022-09-24T08:59:36.491Z,92.86
2022-09-24T09:00:36.490Z,92.65
2022-09-24T09:01:36.526Z,92.55
2022-09-24T09:02:36.839Z,92.51
2022-09-24T09:03:36.514Z,92.61
2022-09-24T09:04:36.417Z,92.51
2022-09-24T09:05:36.381Z,92.41
2022-09-24T09:06:36.380Z,92.30
2022-09-24T09:07:36.372Z,92.10
2022-09-24T09:09:01.656Z,92.06
2022-09-24T09:09:36.349Z,91.96
2022-09-24T09:10:36.317Z,91.86
2022-09-24T09:11:36.312Z,91.86
2022-09-24T09:12:37.217Z,91.91
2022-09-24T09:13:36.295Z,92.12
2022-09-24T09:14:41.649Z,92.12
2022-09-24T09:15:36.391Z,92.02
2022-09-24T09:16:36.278Z,92.12
2022-09-24T09:17:36.311Z,92.32
2022-09-24T09:18:36.210Z,92.22
2022-09-24T09:19:36.331Z,92.22
2022-09-24T09:20:36.195Z,92.58
2022-09-24T09:21:36.173Z,91.71
2022-09-24T09:22:36.187Z,91.82
2022-09-24T09:23:36.142Z,92.02
2022-09-24T09:24:36.147Z,92.32
2022-09-24T09:25:36.177Z,92.52
2022-09-24T09:26:36.105Z,92.93
2022-09-24T09:27:36.101Z,93.13
2022-09-24T09:28:36.101Z,93.24
2022-09-24T09:29:39.693Z,92.89
2022-09-24T09:30:36.075Z,92.72
2022-09-24T09:31:36.076Z,92.38
2022-09-24T09:32:36.014Z,92.32
2022-09-24T09:33:36.021Z,92.02
2022-09-24T09:34:35.994Z,92.12
2022-09-24T09:35:36.025Z,92.22
2022-09-24T09:36:35.978Z,92.42
2022-09-24T09:37:36.004Z,92.48
2022-09-24T09:38:35.962Z,92.68
2022-09-24T09:39:35.946Z,92.79
2022-09-24T09:40:35.998Z,92.58
2022-09-24T09:41:35.976Z,92.38
2022-09-24T09:42:35.909Z,92.07
2022-09-24T09:43:35.885Z,91.87
2022-09-24T09:44:35.890Z,91.87
2022-09-24T09:45:35.858Z,91.87
2022-09-24T09:46:35.928Z,92.07
2022-09-24T09:47:35.815Z,92.28
2022-09-24T09:48:35.823Z,92.28
2022-09-24T09:49:35.829Z,92.18
2022-09-24T09:50:35.795Z,91.97
2022-09-24T09:51:35.755Z,91.87
2022-09-24T09:52:35.756Z,91.77
2022-09-24T09:53:35.760Z,91.77
2022-09-24T09:54:35.747Z,91.83
2022-09-24T09:55:35.747Z,91.93
2022-09-24T09:56:35.701Z,92.03
2022-09-24T09:57:35.695Z,92.03
2022-09-24T09:58:35.695Z,91.73
2022-09-24T09:59:36.145Z,91.42
2022-09-24T10:00:35.654Z,91.12
2022-09-24T10:01:35.636Z,91.12
2022-09-24T10:02:35.797Z,91.32
2022-09-24T10:03:35.652Z,91.52
2022-09-24T10:04:35.639Z,91.52
2022-09-24T10:05:35.606Z,92.24
2022-09-24T10:06:35.591Z,92.54
2022-09-24T10:07:35.576Z,92.33
2022-09-24T10:08:35.566Z,91.99
2022-09-24T10:09:35.539Z,91.78
2022-09-24T10:10:35.555Z,91.78
2022-09-24T10:11:35.544Z,91.68
2022-09-24T10:12:35.487Z,91.28
2022-09-24T10:13:35.471Z,90.77
2022-09-24T10:14:35.489Z,90.73
2022-09-24T10:15:35.467Z,90.73
2022-09-24T10:16:35.561Z,90.93
2022-09-24T10:17:35.410Z,91.13
2022-09-24T10:18:35.421Z,90.69
2022-09-24T10:19:35.406Z,90.58
2022-09-24T10:20:35.403Z,90.69
2022-09-24T10:21:35.396Z,90.58
2022-09-24T10:22:35.374Z,90.38
2022-09-24T10:23:35.353Z,90.28
2022-09-24T10:24:35.327Z,90.08
2022-09-24T10:25:36.106Z,90.08
2022-09-24T10:26:35.322Z,89.98
2022-09-24T10:27:35.307Z,90.32
2022-09-24T10:28:35.260Z,90.42
2022-09-24T10:29:35.269Z,90.42
2022-09-24T10:30:35.274Z,90.89
2022-09-24T10:31:35.287Z,91.39
2022-09-24T10:32:35.273Z,91.39
2022-09-24T10:33:35.217Z,91.39
2022-09-24T10:34:35.200Z,91.39
2022-09-24T10:35:35.238Z,91.39
2022-09-24T10:36:35.167Z,90.99
2022-09-24T10:37:35.187Z,90.89
2022-09-24T10:38:35.173Z,90.95
2022-09-24T10:39:35.139Z,90.84
2022-09-24T10:40:35.131Z,90.44
2022-09-24T10:41:35.121Z,90.34
2022-09-24T10:42:35.084Z,90.14
2022-09-24T10:43:35.085Z,89.94
2022-09-24T10:44:35.083Z,90.03
2022-09-24T10:45:35.087Z,89.94
2022-09-24T10:46:35.071Z,90.03
2022-09-24T10:47:35.050Z,90.24
2022-09-24T10:48:35.044Z,90.24
2022-09-24T10:49:35.004Z,90.24
2022-09-24T10:50:34.990Z,90.44
2022-09-24T10:51:34.961Z,89.94
2022-09-24T10:52:35.042Z,89.73
2022-09-24T10:53:34.948Z,89.73
2022-09-24T10:54:34.928Z,89.83
2022-09-24T10:55:34.906Z,89.94
2022-09-24T10:56:34.951Z,90.44
2022-09-24T10:57:34.920Z,90.64
2022-09-24T10:58:34.885Z,91.05
2022-09-24T10:59:34.889Z,91.46
2022-09-24T11:00:34.851Z,91.05
2022-09-24T11:01:34.881Z,90.95
2022-09-24T11:02:34.898Z,91.25
2022-09-24T11:03:34.828Z,91.66
2022-09-24T11:04:38.699Z,91.75
2022-09-24T11:05:34.818Z,91.96
2022-09-24T11:06:34.774Z,92.16
2022-09-24T11:07:34.758Z,92.26
2022-09-24T11:08:34.726Z,92.32
2022-09-24T11:09:34.733Z,92.52
2022-09-24T11:10:34.734Z,92.93
2022-09-24T11:11:34.729Z,92.63
2022-09-24T11:12:34.699Z,92.42
2022-09-24T11:13:34.669Z,92.22
2022-09-24T11:14:34.681Z,92.02
2022-09-24T11:15:34.634Z,91.61
2022-09-24T11:16:34.793Z,91.47
2022-09-24T11:17:34.639Z,91.47
2022-09-24T11:18:34.618Z,91.27
2022-09-24T11:19:34.622Z,91.37
2022-09-24T11:20:34.579Z,91.16
2022-09-24T11:21:34.603Z,90.86
2022-09-24T11:22:34.563Z,90.66
2022-09-24T11:23:34.533Z,90.36
2022-09-24T11:24:34.519Z,90.25
2022-09-24T11:25:34.561Z,90.45
2022-09-24T11:26:34.511Z,90.52
2022-09-24T11:27:34.515Z,91.12
2022-09-24T11:28:34.471Z,91.32
2022-09-24T11:29:37.195Z,91.12
2022-09-24T11:30:34.453Z,91.22
2022-09-24T11:31:34.539Z,91.32
2022-09-24T11:32:34.447Z,91.32
2022-09-24T11:33:34.398Z,91.42
2022-09-24T11:34:34.405Z,91.12
2022-09-24T11:35:34.402Z,91.08
2022-09-24T11:36:34.360Z,91.08
2022-09-24T11:37:34.369Z,90.88
2022-09-24T11:38:34.458Z,90.78
2022-09-24T11:39:34.355Z,90.98
2022-09-24T11:40:34.401Z,91.08
2022-09-24T11:41:34.395Z,91.28
2022-09-24T11:42:34.283Z,91.58
2022-09-24T11:43:34.303Z,91.89
2022-09-24T11:44:34.273Z,91.54
2022-09-24T11:45:34.253Z,90.73
2022-09-24T11:46:34.382Z,90.23
2022-09-24T11:47:34.263Z,90.73
2022-09-24T11:48:34.239Z,90.03
2022-09-24T11:49:34.235Z,90.23
2022-09-24T11:50:34.240Z,90.33
2022-09-24T11:51:34.210Z,90.73
2022-09-24T11:52:34.185Z,91.24
2022-09-24T11:53:34.151Z,91.19
2022-09-24T11:54:34.173Z,91.30
2022-09-24T11:55:35.032Z,91.15
2022-09-24T11:56:34.178Z,90.65
2022-09-24T11:57:34.146Z,89.64
2022-09-24T11:58:34.117Z,88.93
2022-09-24T11:59:34.077Z,88.83
2022-09-24T12:00:34.105Z,89.13
2022-09-24T12:01:34.117Z,89.64
2022-09-24T12:02:34.062Z,88.93
2022-09-24T12:03:34.074Z,88.79
2022-09-24T12:04:34.024Z,88.99
2022-09-24T12:05:34.001Z,88.79
2022-09-24T12:06:33.966Z,88.89
2022-09-24T12:07:33.982Z,89.09
2022-09-24T12:08:33.945Z,89.29
2022-09-24T12:09:33.949Z,88.89
2022-09-24T12:10:34.162Z,88.75
2022-09-24T12:11:33.933Z,88.65
2022-09-24T12:12:33.913Z,88.45
2022-09-24T12:13:33.883Z,88.14
2022-09-24T12:14:33.886Z,87.94
2022-09-24T12:15:33.849Z,87.74
2022-09-24T12:16:33.946Z,87.74
2022-09-24T12:17:33.840Z,88.04
2022-09-24T12:18:33.798Z,88.04
2022-09-24T12:19:33.809Z,88.04
2022-09-24T12:20:34.098Z,87.23
2022-09-24T12:21:33.780Z,87.63
2022-09-24T12:22:33.826Z,87.34
2022-09-24T12:23:33.733Z,87.54
2022-09-24T12:24:33.771Z,87.63
2022-09-24T12:25:33.736Z,88.50
2022-09-24T12:26:33.704Z,88.50
2022-09-24T12:27:33.675Z,88.40
2022-09-24T12:28:33.679Z,87.29
2022-09-24T12:29:33.705Z,87.49
2022-09-24T12:30:33.672Z,87.60
2022-09-24T12:31:33.666Z,87.29
2022-09-24T12:32:33.643Z,87.09
2022-09-24T12:33:33.659Z,86.79
2022-09-24T12:34:33.646Z,86.89
2022-09-24T12:35:33.581Z,86.79
2022-09-24T12:36:33.575Z,85.98
2022-09-24T12:37:33.591Z,85.78
2022-09-24T12:38:33.622Z,85.74
2022-09-24T12:39:33.550Z,85.54
2022-09-24T12:40:33.626Z,85.54
2022-09-24T12:41:33.518Z,85.54
2022-09-24T12:42:33.487Z,85.44
2022-09-24T12:43:33.481Z,84.74
2022-09-24T12:44:33.484Z,83.83
2022-09-24T12:45:33.523Z,83.52
2022-09-24T12:46:33.549Z,84.53
2022-09-24T12:47:33.457Z,83.62
2022-09-24T12:48:33.413Z,83.52
2022-09-24T12:49:33.391Z,82.98
2022-09-24T12:50:33.400Z,82.88
2022-09-24T12:51:33.363Z,82.38
2022-09-24T12:52:33.361Z,81.93